createdAt,value
2018-04-14T00:01:05.952Z,13.06
2018-04-14T00:01:44.936Z,13.12
2018-04-14T00:02:44.942Z,13.15
2018-04-14T00:03:44.915Z,13.18
2018-04-14T00:04:44.884Z,13.29
2018-04-14T00:05:44.875Z,13.27
2018-04-14T00:07:05.873Z,13.30
2018-04-14T00:07:44.850Z,13.33
2018-04-14T00:08:44.846Z,13.32
2018-04-14T00:09:44.813Z,13.38
2018-04-14T00:10:44.797Z,13.27
2018-04-14T00:11:44.781Z,13.40
2018-04-14T00:13:05.773Z,13.33
2018-04-14T00:13:44.747Z,13.30
2018-04-14T00:14:44.723Z,13.29
2018-04-14T00:15:44.714Z,13.36
2018-04-14T00:16:44.695Z,13.33
2018-04-14T00:17:44.707Z,13.37
2018-04-14T00:19:05.694Z,13.29
2018-04-14T00:19:44.657Z,13.27
2018-04-14T00:20:44.632Z,13.33
2018-04-14T00:21:44.675Z,13.24
2018-04-14T00:22:44.606Z,13.30
2018-04-14T00:23:44.583Z,13.36
2018-04-14T00:25:05.570Z,13.27
2018-04-14T00:25:44.587Z,13.32
2018-04-14T00:26:44.552Z,13.29
2018-04-14T00:27:44.524Z,13.25
2018-04-14T00:28:44.518Z,13.36
2018-04-14T00:29:44.497Z,13.30
2018-04-14T00:31:05.484Z,13.33
2018-04-14T00:31:44.464Z,13.29
2018-04-14T00:32:44.473Z,13.21
2018-04-14T00:33:44.439Z,13.20
2018-04-14T00:34:44.410Z,13.24
2018-04-14T00:35:44.423Z,13.22
2018-04-14T00:37:05.392Z,13.27
2018-04-14T00:37:44.370Z,13.24
2018-04-14T00:38:44.353Z,13.24
2018-04-14T00:39:44.364Z,13.24
2018-04-14T00:40:44.318Z,13.27
2018-04-14T00:41:44.301Z,13.24
2018-04-14T00:43:05.300Z,13.21
2018-04-14T00:43:44.263Z,13.21
2018-04-14T00:44:44.251Z,13.27
2018-04-14T00:45:44.251Z,13.27
2018-04-14T00:46:44.220Z,13.29
2018-04-14T00:47:44.212Z,13.27
2018-04-14T00:49:05.211Z,13.24
2018-04-14T00:49:44.180Z,13.25
2018-04-14T00:50:44.161Z,13.20
2018-04-14T00:51:44.157Z,13.21
2018-04-14T00:52:44.123Z,13.22
2018-04-14T00:53:44.115Z,13.21
2018-04-14T00:55:05.101Z,13.21
2018-04-14T00:55:44.084Z,13.25
2018-04-14T00:56:44.080Z,13.22
2018-04-14T00:57:44.044Z,13.17
2018-04-14T00:58:44.030Z,13.21
2018-04-14T00:59:44.650Z,13.20
2018-04-14T01:01:05.033Z,13.20
2018-04-14T01:01:44.029Z,13.18
2018-04-14T01:02:43.981Z,13.17
2018-04-14T01:03:43.968Z,13.21
2018-04-14T01:04:43.972Z,13.30
2018-04-14T01:05:43.967Z,13.18
2018-04-14T01:07:04.902Z,13.20
2018-04-14T01:07:43.892Z,13.20
2018-04-14T01:08:43.875Z,13.20
2018-04-14T01:09:43.875Z,13.25
2018-04-14T01:10:43.851Z,13.21
2018-04-14T01:11:43.822Z,13.24
2018-04-14T01:13:04.823Z,13.25
2018-04-14T01:13:43.848Z,13.22
2018-04-14T01:14:43.783Z,13.21
2018-04-14T01:15:43.789Z,13.21
2018-04-14T01:16:43.749Z,13.20
2018-04-14T01:17:43.732Z,13.20
2018-04-14T01:19:04.720Z,13.22
2018-04-14T01:19:43.725Z,13.18
2018-04-14T01:20:43.685Z,13.22
2018-04-14T01:21:43.681Z,13.21
2018-04-14T01:22:43.661Z,13.20
2018-04-14T01:23:43.646Z,13.18
2018-04-14T01:25:04.634Z,13.30
2018-04-14T01:25:43.611Z,13.29
2018-04-14T01:26:43.613Z,13.25
2018-04-14T01:27:43.618Z,13.25
2018-04-14T01:28:43.573Z,13.20
2018-04-14T01:29:43.574Z,13.17
2018-04-14T01:31:04.526Z,13.12
2018-04-14T01:31:43.510Z,13.20
2018-04-14T01:32:43.514Z,13.18
2018-04-14T01:33:43.474Z,13.17
2018-04-14T01:34:43.464Z,13.21
2018-04-14T01:35:43.455Z,13.27
2018-04-14T01:37:04.439Z,13.29
2018-04-14T01:37:43.417Z,13.27
2018-04-14T01:38:43.410Z,13.25
2018-04-14T01:39:43.395Z,13.27
2018-04-14T01:40:43.368Z,13.18
2018-04-14T01:41:43.353Z,13.15
2018-04-14T01:43:04.350Z,13.22
2018-04-14T01:43:43.325Z,13.20
2018-04-14T01:44:43.305Z,13.20
2018-04-14T01:45:43.289Z,13.22
2018-04-14T01:46:43.272Z,13.27
2018-04-14T01:47:43.288Z,13.27
2018-04-14T01:49:04.257Z,13.25
2018-04-14T01:49:43.251Z,13.21
2018-04-14T01:50:43.210Z,13.15
2018-04-14T01:51:43.192Z,13.18
2018-04-14T01:52:43.186Z,13.24
2018-04-14T01:53:43.165Z,13.24
2018-04-14T01:55:04.155Z,13.17
2018-04-14T01:55:43.142Z,13.21
2018-04-14T01:56:43.111Z,13.17
2018-04-14T01:57:43.191Z,13.18
2018-04-14T01:58:43.096Z,13.20
2018-04-14T01:59:43.068Z,13.18
2018-04-14T02:01:04.072Z,13.20
2018-04-14T02:01:43.036Z,13.21
2018-04-14T02:02:43.076Z,13.22
2018-04-14T02:03:43.016Z,13.12
2018-04-14T02:04:42.995Z,13.12
2018-04-14T02:05:42.972Z,13.15
2018-04-14T02:07:03.960Z,13.07
2018-04-14T02:07:42.939Z,13.06
2018-04-14T02:08:42.948Z,13.06
2018-04-14T02:09:42.936Z,13.06
2018-04-14T02:10:42.903Z,13.09
2018-04-14T02:11:42.878Z,13.04
2018-04-14T02:13:03.863Z,13.00
2018-04-14T02:13:42.861Z,13.00
2018-04-14T02:14:42.831Z,13.02
2018-04-14T02:15:42.812Z,13.00
2018-04-14T02:16:42.805Z,13.07
2018-04-14T02:17:42.780Z,13.07
2018-04-14T02:19:03.769Z,13.06
2018-04-14T02:19:42.756Z,13.12
2018-04-14T02:20:42.731Z,13.14
2018-04-14T02:21:42.728Z,13.15
2018-04-14T02:22:42.709Z,13.17
2018-04-14T02:23:42.688Z,13.07
2018-04-14T02:25:03.687Z,13.09
2018-04-14T02:25:42.652Z,13.06
2018-04-14T02:26:42.649Z,12.97
2018-04-14T02:27:42.629Z,12.93
2018-04-14T02:28:42.609Z,12.93
2018-04-14T02:29:42.597Z,12.96
2018-04-14T02:31:03.582Z,12.92
2018-04-14T02:31:42.561Z,12.88
2018-04-14T02:32:42.590Z,12.96
2018-04-14T02:33:42.545Z,12.87
2018-04-14T02:34:42.517Z,12.89
2018-04-14T02:35:42.562Z,12.87
2018-04-14T02:37:03.499Z,12.89
2018-04-14T02:37:42.478Z,12.84
2018-04-14T02:38:42.458Z,12.84
2018-04-14T02:39:42.433Z,12.81
2018-04-14T02:40:42.426Z,12.79
2018-04-14T02:41:42.400Z,12.85
2018-04-14T02:43:03.398Z,12.82
2018-04-14T02:43:42.365Z,12.89
2018-04-14T02:44:42.375Z,12.93
2018-04-14T02:45:42.342Z,12.93
2018-04-14T02:46:42.331Z,12.95
2018-04-14T02:47:42.322Z,12.82
2018-04-14T02:49:03.289Z,12.85
2018-04-14T02:49:42.286Z,12.89
2018-04-14T02:50:42.260Z,12.77
2018-04-14T02:51:42.255Z,12.79
2018-04-14T02:52:42.231Z,12.82
2018-04-14T02:53:42.215Z,12.71
2018-04-14T02:55:03.199Z,12.69
2018-04-14T02:55:42.175Z,12.78
2018-04-14T02:56:42.159Z,12.78
2018-04-14T02:57:42.265Z,12.71
2018-04-14T02:58:42.133Z,12.66
2018-04-14T02:59:42.123Z,12.79
2018-04-14T03:01:03.129Z,12.75
2018-04-14T03:01:42.088Z,12.66
2018-04-14T03:02:42.064Z,12.69
2018-04-14T03:03:42.067Z,12.78
2018-04-14T03:04:42.052Z,12.70
2018-04-14T03:05:42.018Z,12.69
2018-04-14T03:07:03.011Z,12.75
2018-04-14T03:07:41.983Z,12.77
2018-04-14T03:08:41.986Z,12.79
2018-04-14T03:09:41.968Z,12.78
2018-04-14T03:10:41.937Z,12.82
2018-04-14T03:11:41.930Z,12.74
2018-04-14T03:13:02.923Z,12.82
2018-04-14T03:13:41.900Z,12.70
2018-04-14T03:14:41.881Z,12.75
2018-04-14T03:15:41.857Z,12.89
2018-04-14T03:16:41.854Z,12.87
2018-04-14T03:17:41.831Z,12.96
2018-04-14T03:19:02.821Z,12.89
2018-04-14T03:19:41.804Z,12.87
2018-04-14T03:20:41.780Z,12.84
2018-04-14T03:21:41.764Z,12.81
2018-04-14T03:22:41.753Z,12.85
2018-04-14T03:23:41.745Z,12.81
2018-04-14T03:25:02.717Z,12.93
2018-04-14T03:25:41.714Z,12.88
2018-04-14T03:26:41.700Z,12.88
2018-04-14T03:27:41.670Z,12.87
2018-04-14T03:28:41.649Z,12.84
2018-04-14T03:29:41.653Z,12.95
2018-04-14T03:31:02.648Z,12.85
2018-04-14T03:31:41.607Z,12.99
2018-04-14T03:32:41.606Z,12.97
2018-04-14T03:33:41.569Z,12.95
2018-04-14T03:34:41.552Z,12.99
2018-04-14T03:35:41.548Z,12.96
2018-04-14T03:37:02.536Z,12.92
2018-04-14T03:37:41.508Z,12.99
2018-04-14T03:38:41.498Z,12.97
2018-04-14T03:39:41.471Z,12.95
2018-04-14T03:40:41.464Z,12.88
2018-04-14T03:41:41.449Z,12.84
2018-04-14T03:43:02.441Z,12.88
2018-04-14T03:43:41.414Z,12.85
2018-04-14T03:44:41.401Z,12.96
2018-04-14T03:45:41.384Z,13.00
2018-04-14T03:46:41.360Z,12.97
2018-04-14T03:47:41.353Z,12.95
2018-04-14T03:49:02.337Z,12.96
2018-04-14T03:49:41.342Z,12.99
2018-04-14T03:50:41.304Z,12.97
2018-04-14T03:51:41.288Z,12.89
2018-04-14T03:52:41.281Z,12.97
2018-04-14T03:53:41.261Z,12.85
2018-04-14T03:55:02.248Z,12.85
2018-04-14T03:55:41.261Z,12.85
2018-04-14T03:56:41.208Z,12.74
2018-04-14T03:57:41.210Z,12.75
2018-04-14T03:58:41.179Z,12.82
2018-04-14T03:59:41.156Z,12.79
2018-04-14T04:01:02.191Z,12.79
2018-04-14T04:01:41.204Z,12.77
2018-04-14T04:02:41.120Z,12.77
2018-04-14T04:03:41.098Z,12.70
2018-04-14T04:04:41.090Z,12.67
2018-04-14T04:05:41.068Z,12.69
2018-04-14T04:07:02.044Z,12.69
2018-04-14T04:07:41.035Z,12.75
2018-04-14T04:08:41.013Z,12.66
2018-04-14T04:09:40.998Z,12.74
2018-04-14T04:10:40.976Z,12.78
2018-04-14T04:11:40.978Z,12.69
2018-04-14T04:13:01.998Z,12.74
2018-04-14T04:13:40.948Z,12.79
2018-04-14T04:14:40.924Z,12.71
2018-04-14T04:15:40.903Z,12.70
2018-04-14T04:16:40.914Z,12.67
2018-04-14T04:17:40.902Z,12.70
2018-04-14T04:19:01.873Z,12.70
2018-04-14T04:19:40.843Z,12.74
2018-04-14T04:20:40.825Z,12.64
2018-04-14T04:21:40.829Z,12.54
2018-04-14T04:22:40.793Z,12.51
2018-04-14T04:23:40.783Z,12.41
2018-04-14T04:25:01.762Z,12.41
2018-04-14T04:25:40.753Z,12.39
2018-04-14T04:26:40.772Z,12.42
2018-04-14T04:27:40.716Z,12.42
2018-04-14T04:28:40.697Z,12.34
2018-04-14T04:29:40.681Z,12.41
2018-04-14T04:31:01.667Z,12.37
2018-04-14T04:31:40.651Z,12.34
2018-04-14T04:32:40.626Z,12.39
2018-04-14T04:33:40.611Z,12.33
2018-04-14T04:34:40.610Z,12.39
2018-04-14T04:35:40.589Z,12.38
2018-04-14T04:37:01.565Z,12.41
2018-04-14T04:37:40.549Z,12.34
2018-04-14T04:38:40.535Z,12.23
2018-04-14T04:39:40.514Z,12.26
2018-04-14T04:40:40.501Z,12.21
2018-04-14T04:41:40.502Z,12.13
2018-04-14T04:43:01.477Z,12.13
2018-04-14T04:43:40.459Z,12.13
2018-04-14T04:44:40.479Z,12.13
2018-04-14T04:45:40.438Z,12.12
2018-04-14T04:46:40.415Z,12.13
2018-04-14T04:47:40.407Z,11.99
2018-04-14T04:49:01.377Z,11.97
2018-04-14T04:49:40.353Z,11.96
2018-04-14T04:50:40.339Z,11.96
2018-04-14T04:51:40.325Z,11.87
2018-04-14T04:52:40.313Z,11.89
2018-04-14T04:53:40.294Z,11.96
2018-04-14T04:55:01.277Z,12.02
2018-04-14T04:55:40.259Z,12.02
2018-04-14T04:56:40.247Z,12.05
2018-04-14T04:57:40.222Z,12.09
2018-04-14T04:58:40.209Z,11.99
2018-04-14T04:59:40.194Z,11.94
2018-04-14T05:01:01.210Z,11.93
2018-04-14T05:01:40.159Z,11.89
2018-04-14T05:02:40.155Z,11.94
2018-04-14T05:03:40.148Z,11.86
2018-04-14T05:04:40.118Z,11.97
2018-04-14T05:05:40.119Z,11.93
2018-04-14T05:07:01.086Z,11.99
2018-04-14T05:07:40.066Z,12.04
2018-04-14T05:08:40.045Z,12.01
2018-04-14T05:09:40.028Z,11.93
2018-04-14T05:10:40.043Z,11.87
2018-04-14T05:11:40.008Z,11.86
2018-04-14T05:13:00.990Z,11.86
2018-04-14T05:13:39.976Z,11.89
2018-04-14T05:14:39.955Z,11.90
2018-04-14T05:15:39.936Z,12.02
2018-04-14T05:16:39.917Z,12.02
2018-04-14T05:17:39.910Z,12.01
2018-04-14T05:19:00.879Z,11.94
2018-04-14T05:19:39.864Z,11.90
2018-04-14T05:20:39.853Z,11.90
2018-04-14T05:21:39.855Z,11.86
2018-04-14T05:22:39.815Z,11.90
2018-04-14T05:23:39.811Z,11.93
2018-04-14T05:25:00.792Z,12.04
2018-04-14T05:25:39.787Z,11.90
2018-04-14T05:26:39.761Z,11.94
2018-04-14T05:27:39.726Z,11.93
2018-04-14T05:28:39.717Z,11.89
2018-04-14T05:29:39.704Z,11.86
2018-04-14T05:31:00.700Z,11.77
2018-04-14T05:31:39.678Z,11.75
2018-04-14T05:32:39.652Z,11.72
2018-04-14T05:33:39.678Z,11.71
2018-04-14T05:34:39.612Z,11.75
2018-04-14T05:35:39.610Z,11.65
2018-04-14T05:37:00.592Z,11.77
2018-04-14T05:37:39.567Z,11.75
2018-04-14T05:38:39.564Z,11.75
2018-04-14T05:39:39.539Z,11.77
2018-04-14T05:40:39.520Z,11.80
2018-04-14T05:41:39.516Z,11.85
2018-04-14T05:43:00.496Z,11.83
2018-04-14T05:43:39.510Z,11.87
2018-04-14T05:44:39.452Z,11.89
2018-04-14T05:45:39.433Z,11.97
2018-04-14T05:46:39.428Z,12.05
2018-04-14T05:47:39.407Z,11.96
2018-04-14T05:49:00.408Z,12.05
2018-04-14T05:49:39.393Z,12.11
2018-04-14T05:50:39.348Z,12.11
2018-04-14T05:51:39.338Z,12.09
2018-04-14T05:52:39.354Z,12.23
2018-04-14T05:53:39.306Z,12.20
2018-04-14T05:55:00.305Z,12.26
2018-04-14T05:55:39.279Z,12.24
2018-04-14T05:56:39.254Z,12.26
2018-04-14T05:57:39.240Z,12.27
2018-04-14T05:58:39.241Z,12.29
2018-04-14T05:59:39.215Z,12.12
2018-04-14T06:01:00.193Z,12.06
2018-04-14T06:01:39.189Z,12.02
2018-04-14T06:02:39.175Z,11.97
2018-04-14T06:03:39.142Z,12.15
2018-04-14T06:04:39.127Z,12.16
2018-04-14T06:05:39.115Z,12.23
2018-04-14T06:07:00.099Z,12.29
2018-04-14T06:07:39.075Z,12.41
2018-04-14T06:08:39.076Z,12.34
2018-04-14T06:09:39.045Z,12.37
2018-04-14T06:10:39.030Z,12.38
2018-04-14T06:11:39.021Z,12.29
2018-04-14T06:12:59.999Z,12.42
2018-04-14T06:13:38.993Z,12.38
2018-04-14T06:14:38.972Z,12.44
2018-04-14T06:15:38.953Z,12.59
2018-04-14T06:16:38.942Z,12.66
2018-04-14T06:17:38.914Z,12.71
2018-04-14T06:18:59.913Z,12.69
2018-04-14T06:19:38.891Z,12.75
2018-04-14T06:20:38.913Z,12.75
2018-04-14T06:21:38.846Z,12.79
2018-04-14T06:22:38.843Z,12.70
2018-04-14T06:23:38.819Z,12.87
2018-04-14T06:24:59.826Z,12.84
2018-04-14T06:25:38.783Z,12.85
2018-04-14T06:26:38.769Z,12.75
2018-04-14T06:27:38.774Z,12.89
2018-04-14T06:28:38.738Z,12.75
2018-04-14T06:29:38.719Z,12.82
2018-04-14T06:30:59.706Z,12.67
2018-04-14T06:31:38.710Z,12.74
2018-04-14T06:32:38.692Z,12.79
2018-04-14T06:33:38.664Z,12.75
2018-04-14T06:34:38.696Z,12.74
2018-04-14T06:35:38.637Z,12.74
2018-04-14T06:36:59.615Z,12.85
2018-04-14T06:37:38.609Z,13.06
2018-04-14T06:38:38.579Z,13.24
2018-04-14T06:39:38.564Z,13.43
2018-04-14T06:40:38.553Z,13.63
2018-04-14T06:41:38.533Z,13.63
2018-04-14T06:42:59.522Z,13.71
2018-04-14T06:43:38.504Z,13.80
2018-04-14T06:44:38.489Z,13.89
2018-04-14T06:45:38.473Z,14.02
2018-04-14T06:46:38.457Z,14.10
2018-04-14T06:47:38.435Z,14.27
2018-04-14T06:48:59.420Z,14.38
2018-04-14T06:49:38.429Z,14.44
2018-04-14T06:50:38.395Z,14.50
2018-04-14T06:51:38.399Z,14.62
2018-04-14T06:52:38.356Z,14.46
2018-04-14T06:53:38.353Z,14.38
2018-04-14T06:54:59.347Z,14.29
2018-04-14T06:55:38.333Z,14.24
2018-04-14T06:56:38.320Z,14.38
2018-04-14T06:57:38.282Z,14.49
2018-04-14T06:58:38.273Z,14.54
2018-04-14T06:59:38.254Z,14.60
2018-04-14T07:00:59.273Z,14.49
2018-04-14T07:01:38.221Z,14.21
2018-04-14T07:02:38.241Z,14.20
2018-04-14T07:03:38.199Z,14.06
2018-04-14T07:04:38.244Z,14.10
2018-04-14T07:05:38.215Z,14.07
2018-04-14T07:06:59.163Z,14.06
2018-04-14T07:07:38.136Z,14.06
2018-04-14T07:08:38.131Z,13.94
2018-04-14T07:09:38.225Z,14.10
2018-04-14T07:10:38.192Z,14.12
2018-04-14T07:11:38.103Z,14.09
2018-04-14T07:12:59.067Z,14.13
2018-04-14T07:13:38.069Z,14.24
2018-04-14T07:14:38.040Z,14.24
2018-04-14T07:15:38.035Z,14.29
2018-04-14T07:16:38.018Z,14.31
2018-04-14T07:17:37.997Z,14.32
2018-04-14T07:18:58.987Z,14.53
2018-04-14T07:19:38.020Z,14.67
2018-04-14T07:20:37.968Z,14.47
2018-04-14T07:21:38.020Z,14.52
2018-04-14T07:22:37.948Z,14.60
2018-04-14T07:23:37.924Z,14.68
2018-04-14T07:24:58.905Z,14.87
2018-04-14T07:25:37.912Z,15.03
2018-04-14T07:26:37.880Z,15.17
2018-04-14T07:27:37.857Z,15.15
2018-04-14T07:28:37.879Z,15.35
2018-04-14T07:29:37.828Z,15.11
2018-04-14T07:30:58.832Z,14.99
2018-04-14T07:31:37.791Z,14.52
2018-04-14T07:32:37.853Z,14.49
2018-04-14T07:33:37.787Z,14.52
2018-04-14T07:34:37.758Z,14.44
2018-04-14T07:35:37.736Z,14.28
2018-04-14T07:36:58.732Z,14.42
2018-04-14T07:37:37.750Z,14.28
2018-04-14T07:38:37.755Z,14.16
2018-04-14T07:39:37.704Z,14.16
2018-04-14T07:40:37.658Z,14.25
2018-04-14T07:41:37.654Z,14.28
2018-04-14T07:42:58.644Z,14.27
2018-04-14T07:43:37.624Z,14.29
2018-04-14T07:44:37.661Z,14.35
2018-04-14T07:45:37.588Z,14.17
2018-04-14T07:46:37.582Z,14.27
2018-04-14T07:47:37.563Z,14.29
2018-04-14T07:48:58.599Z,14.38
2018-04-14T07:49:37.557Z,14.43
2018-04-14T07:50:37.526Z,14.25
2018-04-14T07:51:37.563Z,14.27
2018-04-14T07:52:37.513Z,14.17
2018-04-14T07:53:37.493Z,14.14
2018-04-14T07:54:58.468Z,14.02
2018-04-14T07:55:37.445Z,14.28
2018-04-14T07:56:37.439Z,14.24
2018-04-14T07:57:37.429Z,14.31
2018-04-14T07:58:37.439Z,14.25
2018-04-14T07:59:37.415Z,14.27
2018-04-14T08:00:58.393Z,14.14
2018-04-14T08:01:37.365Z,14.27
2018-04-14T08:02:37.523Z,14.27
2018-04-14T08:03:37.336Z,14.24
2018-04-14T08:04:37.322Z,14.39
2018-04-14T08:05:37.308Z,14.64
2018-04-14T08:06:58.316Z,14.75
2018-04-14T08:07:37.294Z,14.88
2018-04-14T08:08:37.285Z,14.83
2018-04-14T08:09:37.277Z,14.99
2018-04-14T08:10:37.261Z,14.98
2018-04-14T08:11:37.355Z,15.13
2018-04-14T08:12:58.245Z,15.30
2018-04-14T08:13:37.249Z,15.36
2018-04-14T08:14:37.184Z,15.30
2018-04-14T08:15:37.184Z,15.23
2018-04-14T08:16:37.161Z,15.49
2018-04-14T08:17:37.147Z,15.36
2018-04-14T08:18:58.134Z,15.36
2018-04-14T08:19:37.114Z,15.26
2018-04-14T08:20:37.095Z,15.35
2018-04-14T08:21:37.116Z,15.38
2018-04-14T08:22:37.079Z,15.35
2018-04-14T08:23:37.081Z,15.28
2018-04-14T08:24:58.058Z,15.35
2018-04-14T08:25:37.043Z,15.51
2018-04-14T08:26:37.006Z,15.61
2018-04-14T08:27:36.991Z,15.81
2018-04-14T08:28:37.005Z,15.81
2018-04-14T08:29:37.019Z,15.96
2018-04-14T08:30:57.987Z,16.11
2018-04-14T08:31:36.945Z,15.93
2018-04-14T08:32:36.950Z,16.09
2018-04-14T08:33:36.939Z,16.16
2018-04-14T08:34:36.908Z,16.38
2018-04-14T08:35:36.918Z,16.41
2018-04-14T08:36:57.902Z,16.38
2018-04-14T08:37:36.884Z,16.48
2018-04-14T08:38:36.856Z,16.55
2018-04-14T08:39:36.841Z,16.41
2018-04-14T08:40:36.847Z,16.42
2018-04-14T08:41:36.814Z,16.30
2018-04-14T08:42:57.821Z,16.00
2018-04-14T08:43:36.819Z,15.86
2018-04-14T08:44:36.793Z,15.86
2018-04-14T08:45:36.855Z,15.75
2018-04-14T08:46:36.739Z,15.75
2018-04-14T08:47:36.752Z,15.82
2018-04-14T08:48:57.733Z,15.68
2018-04-14T08:49:36.709Z,15.76
2018-04-14T08:50:36.698Z,15.84
2018-04-14T08:51:36.700Z,16.11
2018-04-14T08:52:36.701Z,16.12
2018-04-14T08:53:36.680Z,16.23
2018-04-14T08:54:57.682Z,16.16
2018-04-14T08:55:36.622Z,16.26
2018-04-14T08:56:36.623Z,16.37
2018-04-14T08:57:36.598Z,16.52
2018-04-14T08:58:36.589Z,16.44
2018-04-14T08:59:36.569Z,16.53
2018-04-14T09:00:57.563Z,16.22
2018-04-14T09:01:36.588Z,16.20
2018-04-14T09:02:36.538Z,16.12
2018-04-14T09:03:36.517Z,16.20
2018-04-14T09:04:36.517Z,16.12
2018-04-14T09:05:36.522Z,16.12
2018-04-14T09:06:57.493Z,16.25
2018-04-14T09:07:36.498Z,16.26
2018-04-14T09:08:36.472Z,16.31
2018-04-14T09:09:36.468Z,16.27
2018-04-14T09:10:36.440Z,15.96
2018-04-14T09:11:36.425Z,15.85
2018-04-14T09:12:57.422Z,15.84
2018-04-14T09:13:36.405Z,15.66
2018-04-14T09:14:36.390Z,15.76
2018-04-14T09:15:36.368Z,15.86
2018-04-14T09:16:36.368Z,15.89
2018-04-14T09:17:36.355Z,15.88
2018-04-14T09:18:57.338Z,15.94
2018-04-14T09:19:36.342Z,16.00
2018-04-14T09:20:36.301Z,16.06
2018-04-14T09:21:36.283Z,16.09
2018-04-14T09:22:36.292Z,16.09
2018-04-14T09:23:36.299Z,16.11
2018-04-14T09:24:57.258Z,16.09
2018-04-14T09:25:36.303Z,16.15
2018-04-14T09:26:36.237Z,16.22
2018-04-14T09:27:36.210Z,16.04
2018-04-14T09:28:36.197Z,16.23
2018-04-14T09:29:36.189Z,16.09
2018-04-14T09:30:57.215Z,16.22
2018-04-14T09:31:36.177Z,16.06
2018-04-14T09:32:36.161Z,15.85
2018-04-14T09:33:36.157Z,15.68
2018-04-14T09:34:36.128Z,15.63
2018-04-14T09:35:36.110Z,15.86
2018-04-14T09:36:57.097Z,15.76
2018-04-14T09:37:36.788Z,16.00
2018-04-14T09:38:36.087Z,16.15
2018-04-14T09:39:36.073Z,16.38
2018-04-14T09:40:36.050Z,16.63
2018-04-14T09:41:36.037Z,16.81
2018-04-14T09:42:57.080Z,16.73
2018-04-14T09:43:36.075Z,16.63
2018-04-14T09:44:35.992Z,16.58
2018-04-14T09:45:35.997Z,16.42
2018-04-14T09:46:35.972Z,16.56
2018-04-14T09:47:35.964Z,16.60
2018-04-14T09:48:56.959Z,16.62
2018-04-14T09:49:35.923Z,16.70
2018-04-14T09:50:35.919Z,16.85
2018-04-14T09:51:35.900Z,17.03
2018-04-14T09:52:35.896Z,17.11
2018-04-14T09:53:35.893Z,16.99
2018-04-14T09:54:56.864Z,17.07
2018-04-14T09:55:35.871Z,17.11
2018-04-14T09:56:35.851Z,17.08
2018-04-14T09:57:35.839Z,17.18
2018-04-14T09:58:35.825Z,17.17
2018-04-14T09:59:35.800Z,17.28
2018-04-14T10:00:56.802Z,17.36
2018-04-14T10:01:35.811Z,17.36
2018-04-14T10:02:35.781Z,17.33
2018-04-14T10:03:35.765Z,17.25
2018-04-14T10:04:35.761Z,16.96
2018-04-14T10:05:35.747Z,16.73
2018-04-14T10:06:56.728Z,16.59
2018-04-14T10:07:35.722Z,16.53
2018-04-14T10:08:35.701Z,16.58
2018-04-14T10:09:35.692Z,16.70
2018-04-14T10:10:35.740Z,16.63
2018-04-14T10:11:35.654Z,16.75
2018-04-14T10:12:56.662Z,16.71
2018-04-14T10:13:35.677Z,16.56
2018-04-14T10:14:35.620Z,16.44
2018-04-14T10:15:35.660Z,16.33
2018-04-14T10:16:35.601Z,16.18
2018-04-14T10:17:35.590Z,16.33
2018-04-14T10:18:56.581Z,16.53
2018-04-14T10:19:35.608Z,16.73
2018-04-14T10:20:35.592Z,16.83
2018-04-14T10:21:35.552Z,16.86
2018-04-14T10:22:35.550Z,16.99
2018-04-14T10:23:35.511Z,17.06
2018-04-14T10:24:56.512Z,17.23
2018-04-14T10:25:35.512Z,17.30
2018-04-14T10:26:35.469Z,17.28
2018-04-14T10:27:35.476Z,17.23
2018-04-14T10:28:35.456Z,17.04
2018-04-14T10:29:35.433Z,16.93
2018-04-14T10:30:56.433Z,16.70
2018-04-14T10:31:35.419Z,16.49
2018-04-14T10:32:35.425Z,16.52
2018-04-14T10:33:35.396Z,16.60
2018-04-14T10:34:35.388Z,16.74
2018-04-14T10:35:35.371Z,16.78
2018-04-14T10:36:56.370Z,16.75
2018-04-14T10:37:35.352Z,16.71
2018-04-14T10:38:35.331Z,16.80
2018-04-14T10:39:35.313Z,16.62
2018-04-14T10:40:35.355Z,16.45
2018-04-14T10:41:35.353Z,16.53
2018-04-14T10:42:56.292Z,16.65
2018-04-14T10:43:35.301Z,16.83
2018-04-14T10:44:35.281Z,16.81
2018-04-14T10:45:35.243Z,17.03
2018-04-14T10:46:35.235Z,17.04
2018-04-14T10:47:35.228Z,16.93
2018-04-14T10:48:56.264Z,17.06
2018-04-14T10:49:35.240Z,17.15
2018-04-14T10:50:35.651Z,17.08
2018-04-14T10:51:35.338Z,17.04
2018-04-14T10:52:35.167Z,17.03
2018-04-14T10:53:35.157Z,16.93
2018-04-14T10:54:56.147Z,16.90
2018-04-14T10:55:35.147Z,16.86
2018-04-14T10:56:35.151Z,16.77
2018-04-14T10:57:35.126Z,16.83
2018-04-14T10:58:35.122Z,17.00
2018-04-14T10:59:35.081Z,17.30
2018-04-14T11:00:56.116Z,17.44
2018-04-14T11:01:35.080Z,17.51
2018-04-14T11:02:35.047Z,17.63
2018-04-14T11:03:35.032Z,17.70
2018-04-14T11:04:35.065Z,17.78
2018-04-14T11:05:35.002Z,17.79
2018-04-14T11:06:55.998Z,17.62
2018-04-14T11:07:34.996Z,16.95
2018-04-14T11:08:34.965Z,16.73
2018-04-14T11:09:34.960Z,16.73
2018-04-14T11:10:34.980Z,16.86
2018-04-14T11:11:34.927Z,17.10
2018-04-14T11:12:55.942Z,17.30
2018-04-14T11:13:34.965Z,17.48
2018-04-14T11:14:34.912Z,17.66
2018-04-14T11:15:34.891Z,17.66
2018-04-14T11:16:34.872Z,17.71
2018-04-14T11:17:34.922Z,17.82
2018-04-14T11:18:55.865Z,17.85
2018-04-14T11:19:34.845Z,18.12
2018-04-14T11:20:34.844Z,18.24
2018-04-14T11:21:34.832Z,18.22
2018-04-14T11:22:34.806Z,18.25
2018-04-14T11:23:34.790Z,18.17
2018-04-14T11:25:00.599Z,18.00
2018-04-14T11:25:34.768Z,17.76
2018-04-14T11:26:38.637Z,17.79
2018-04-14T11:27:34.749Z,17.81
2018-04-14T11:28:34.755Z,17.87
2018-04-14T11:29:34.721Z,17.87
2018-04-14T11:30:55.745Z,17.85
2018-04-14T11:31:34.753Z,17.97
2018-04-14T11:32:34.748Z,18.02
2018-04-14T11:33:34.757Z,18.03
2018-04-14T11:34:34.675Z,17.94
2018-04-14T11:35:34.647Z,17.91
2018-04-14T11:36:55.664Z,17.79
2018-04-14T11:37:34.653Z,17.81
2018-04-14T11:38:34.625Z,17.84
2018-04-14T11:39:34.625Z,17.87
2018-04-14T11:40:34.595Z,18.02
2018-04-14T11:41:34.585Z,18.06
2018-04-14T11:42:55.581Z,18.17
2018-04-14T11:43:35.440Z,18.19
2018-04-14T11:44:34.550Z,18.36
2018-04-14T11:45:36.672Z,18.27
2018-04-14T11:46:34.523Z,18.34
2018-04-14T11:47:34.501Z,18.49
2018-04-14T11:48:55.514Z,18.52
2018-04-14T11:49:34.497Z,18.47
2018-04-14T11:50:34.478Z,18.61
2018-04-14T11:51:34.475Z,18.68
2018-04-14T11:52:34.479Z,18.57
2018-04-14T11:53:34.453Z,18.46
2018-04-14T11:54:55.437Z,18.49
2018-04-14T11:55:34.429Z,18.44
2018-04-14T11:56:34.405Z,18.42
2018-04-14T11:57:34.403Z,18.22
2018-04-14T11:58:34.375Z,18.09
2018-04-14T11:59:34.397Z,18.13
2018-04-14T12:00:55.388Z,18.19
2018-04-14T12:01:34.348Z,18.42
2018-04-14T12:02:34.332Z,18.54
2018-04-14T12:03:34.321Z,18.61
2018-04-14T12:04:34.324Z,18.57
2018-04-14T12:05:34.301Z,18.76
2018-04-14T12:06:55.313Z,18.86
2018-04-14T12:07:34.274Z,18.62
2018-04-14T12:08:34.316Z,18.73
2018-04-14T12:09:34.254Z,18.77
2018-04-14T12:10:34.245Z,18.95
2018-04-14T12:11:34.273Z,19.05
2018-04-14T12:12:55.234Z,18.84
2018-04-14T12:13:34.203Z,18.59
2018-04-14T12:14:34.223Z,18.47
2018-04-14T12:15:34.192Z,18.34
2018-04-14T12:16:34.225Z,18.55
2018-04-14T12:17:34.181Z,18.50
2018-04-14T12:18:55.169Z,18.61
2018-04-14T12:19:34.153Z,18.79
2018-04-14T12:20:34.138Z,18.62
2018-04-14T12:21:34.158Z,18.33
2018-04-14T12:22:34.111Z,18.28
2018-04-14T12:23:34.097Z,18.43
2018-04-14T12:24:55.104Z,18.28
2018-04-14T12:25:34.086Z,18.33
2018-04-14T12:26:34.091Z,18.37
2018-04-14T12:27:34.051Z,18.44
2018-04-14T12:28:34.038Z,18.58
2018-04-14T12:29:34.028Z,18.42
2018-04-14T12:30:55.025Z,18.44
2018-04-14T12:31:34.011Z,18.42
2018-04-14T12:32:33.997Z,18.25
2018-04-14T12:33:34.003Z,18.46
2018-04-14T12:34:34.003Z,18.57
2018-04-14T12:35:33.959Z,18.54
2018-04-14T12:36:54.951Z,18.67
2018-04-14T12:37:33.950Z,18.64
2018-04-14T12:38:33.935Z,18.72
2018-04-14T12:39:34.012Z,18.55
2018-04-14T12:40:33.902Z,18.54
2018-04-14T12:41:33.910Z,18.46
2018-04-14T12:42:54.901Z,18.47
2018-04-14T12:43:33.880Z,18.49
2018-04-14T12:44:33.868Z,18.58
2018-04-14T12:45:33.865Z,18.57
2018-04-14T12:46:33.892Z,18.57
2018-04-14T12:47:33.846Z,18.62
2018-04-14T12:48:54.832Z,18.43
2018-04-14T12:49:33.826Z,18.19
2018-04-14T12:50:33.799Z,18.19
2018-04-14T12:51:33.788Z,18.18
2018-04-14T12:52:33.827Z,17.97